createdAt,value
2023-05-06T00:02:28.005Z,11.24
2023-05-06T00:07:29.797Z,11.16
2023-05-06T00:12:31.652Z,11.08
2023-05-06T00:17:33.325Z,10.99
2023-05-06T00:22:35.198Z,10.88
2023-05-06T00:27:36.881Z,10.78
2023-05-06T00:32:39.004Z,10.69
2023-05-06T00:37:40.899Z,10.61
2023-05-06T00:42:43.014Z,10.53
2023-05-06T00:47:44.952Z,10.47
2023-05-06T00:52:46.889Z,10.40
2023-05-06T00:57:51.925Z,10.35
2023-05-06T01:02:53.960Z,10.30
2023-05-06T01:08:16.445Z,10.27
2023-05-06T01:13:45.345Z,10.25
2023-05-06T01:18:49.163Z,10.21
2023-05-06T01:23:58.576Z,10.16
2023-05-06T01:29:02.425Z,10.10
2023-05-06T01:34:33.174Z,10.04
2023-05-06T01:39:35.260Z,9.98
2023-05-06T01:44:38.907Z,9.96
2023-05-06T01:49:40.992Z,9.95
2023-05-06T01:54:42.739Z,9.94
2023-05-06T01:59:44.392Z,9.89
2023-05-06T02:04:46.210Z,9.83
2023-05-06T02:09:48.049Z,9.75
2023-05-06T02:14:50.268Z,9.71
2023-05-06T02:19:52.131Z,9.69
2023-05-06T02:24:53.882Z,9.68
2023-05-06T02:29:55.583Z,9.63
2023-05-06T02:34:57.366Z,9.56
2023-05-06T02:39:59.223Z,9.51
2023-05-06T02:45:01.182Z,9.44
2023-05-06T02:50:03.653Z,9.40
2023-05-06T02:55:07.259Z,9.40
2023-05-06T03:00:11.031Z,9.44
2023-05-06T03:05:12.791Z,9.50
2023-05-06T03:10:14.952Z,9.52
2023-05-06T03:15:17.021Z,9.54
2023-05-06T03:20:19.570Z,9.56
2023-05-06T03:25:25.333Z,9.61
2023-05-06T03:30:27.493Z,9.68
2023-05-06T03:35:30.853Z,9.73
2023-05-06T03:40:34.035Z,9.77
2023-05-06T03:45:36.220Z,9.81
2023-05-06T03:50:38.379Z,9.83
2023-05-06T03:55:40.409Z,9.84
2023-05-06T04:00:42.307Z,9.90
2023-05-06T04:05:46.087Z,9.99
2023-05-06T04:10:49.477Z,10.12
2023-05-06T04:15:57.441Z,10.26
2023-05-06T04:21:02.558Z,10.43
2023-05-06T04:26:06.110Z,10.58
2023-05-06T04:31:08.694Z,10.72
2023-05-06T04:36:17.749Z,10.85
2023-05-06T04:41:31.179Z,11.02
2023-05-06T04:46:34.013Z,11.26
2023-05-06T04:51:37.155Z,11.53
2023-05-06T04:56:39.242Z,11.76
2023-05-06T05:01:41.553Z,12.34
2023-05-06T05:06:45.252Z,13.90
2023-05-06T05:11:47.550Z,14.94
2023-05-06T05:16:49.447Z,15.38
2023-05-06T05:21:52.609Z,15.39
2023-05-06T05:26:55.394Z,15.20
2023-05-06T05:31:57.770Z,15.13
2023-05-06T05:36:59.471Z,15.30
2023-05-06T05:42:02.343Z,16.00
2023-05-06T05:47:05.103Z,16.64
2023-05-06T05:52:07.941Z,16.84
2023-05-06T05:57:09.836Z,16.83
2023-05-06T06:02:12.057Z,16.70
2023-05-06T06:07:13.787Z,16.40
2023-05-06T06:12:18.184Z,16.10
2023-05-06T06:17:20.121Z,15.94
2023-05-06T06:22:24.028Z,16.14
2023-05-06T06:27:26.095Z,16.31
2023-05-06T06:32:28.005Z,16.34
2023-05-06T06:37:29.986Z,16.27
2023-05-06T06:42:31.916Z,16.25
2023-05-06T06:47:41.987Z,16.41
2023-05-06T06:52:44.295Z,16.66
2023-05-06T06:57:45.999Z,17.06
2023-05-06T07:02:48.539Z,17.30
2023-05-06T07:07:50.293Z,17.31
2023-05-06T07:12:52.407Z,17.20
2023-05-06T07:17:54.127Z,17.13
2023-05-06T07:22:55.847Z,17.00
2023-05-06T07:27:57.705Z,16.71
2023-05-06T07:32:59.453Z,16.45
2023-05-06T07:38:01.184Z,16.23
2023-05-06T07:43:03.621Z,16.03
2023-05-06T07:48:06.172Z,15.89
2023-05-06T07:53:07.838Z,15.79
2023-05-06T07:58:09.492Z,15.71
2023-05-06T08:03:11.244Z,15.71
2023-05-06T08:08:13.119Z,15.68
2023-05-06T08:13:15.143Z,15.61
2023-05-06T08:18:22.216Z,15.54
2023-05-06T08:23:24.885Z,15.52
2023-05-06T08:28:26.866Z,15.52
2023-05-06T08:33:30.750Z,15.60
2023-05-06T08:38:32.561Z,15.72
2023-05-06T08:43:44.172Z,15.76
2023-05-06T08:48:46.116Z,15.74
2023-05-06T08:53:48.801Z,15.70
2023-05-06T08:58:52.186Z,15.65
2023-05-06T09:03:55.539Z,15.57
2023-05-06T09:08:57.668Z,15.42
2023-05-06T09:14:13.102Z,15.15
2023-05-06T09:19:15.932Z,14.83
2023-05-06T09:24:18.350Z,14.58
2023-05-06T09:29:20.030Z,14.33
2023-05-06T09:34:22.622Z,14.12
2023-05-06T09:39:27.690Z,13.96
2023-05-06T09:44:29.743Z,13.84
2023-05-06T09:49:31.874Z,13.72
2023-05-06T09:54:33.673Z,13.63
2023-05-06T09:59:36.371Z,13.59
2023-05-06T10:04:41.447Z,13.52
2023-05-06T10:09:43.276Z,13.40
2023-05-06T10:14:45.226Z,13.23
2023-05-06T10:19:50.586Z,13.08
2023-05-06T10:24:58.709Z,12.98
2023-05-06T10:30:01.113Z,12.87
2023-05-06T10:35:20.573Z,12.79
2023-05-06T10:40:23.928Z,12.71
2023-05-06T10:45:25.983Z,12.71
2023-05-06T10:50:27.939Z,12.77
2023-05-06T10:55:33.622Z,12.86
2023-05-06T11:00:35.318Z,12.85
2023-05-06T11:05:48.913Z,12.72
2023-05-06T11:10:51.168Z,12.56
2023-05-06T11:15:54.901Z,12.47
2023-05-06T11:21:02.554Z,12.45
2023-05-06T11:26:07.795Z,12.43
2023-05-06T11:31:10.348Z,12.37
2023-05-06T11:36:19.548Z,12.30
2023-05-06T11:41:22.717Z,12.30
2023-05-06T11:46:25.427Z,12.36
2023-05-06T11:51:27.170Z,12.35
2023-05-06T11:56:28.788Z,12.29
2023-05-06T12:01:30.523Z,12.23
2023-05-06T12:06:34.826Z,12.18
2023-05-06T12:11:38.160Z,12.15
2023-05-06T12:16:41.310Z,12.20
2023-05-06T12:21:43.094Z,12.30
2023-05-06T12:26:46.939Z,12.39
2023-05-06T12:31:49.261Z,12.50
2023-05-06T12:36:51.178Z,12.60
2023-05-06T12:41:54.098Z,12.66
2023-05-06T12:46:56.052Z,12.74
2023-05-06T12:52:10.803Z,12.81
2023-05-06T12:57:12.836Z,12.91
2023-05-06T13:02:15.613Z,13.00
2023-05-06T13:07:17.402Z,13.24
2023-05-06T13:12:18.989Z,13.75
2023-05-06T13:17:20.995Z,14.08
2023-05-06T13:22:24.327Z,14.27
2023-05-06T13:27:25.911Z,14.55
2023-05-06T13:32:27.774Z,14.94
2023-05-06T13:37:29.461Z,15.28
2023-05-06T13:42:31.117Z,15.45
2023-05-06T13:47:33.167Z,15.64
2023-05-06T13:52:34.890Z,15.83
2023-05-06T13:57:36.782Z,15.99
2023-05-06T14:02:38.702Z,16.15
2023-05-06T14:07:40.892Z,16.31
2023-05-06T14:12:42.572Z,16.47
2023-05-06T14:17:44.340Z,16.55
2023-05-06T14:22:46.326Z,16.49
2023-05-06T14:27:48.047Z,16.33
2023-05-06T14:32:49.725Z,16.18
2023-05-06T14:37:51.508Z,15.93
2023-05-06T14:42:53.586Z,15.72
2023-05-06T14:47:55.438Z,15.54
2023-05-06T14:52:57.356Z,15.42
2023-05-06T14:57:59.089Z,15.35
2023-05-06T15:03:00.816Z,15.33
2023-05-06T15:08:02.940Z,15.36
2023-05-06T15:13:04.708Z,15.38
2023-05-06T15:18:06.826Z,15.20
2023-05-06T15:23:08.722Z,15.10
2023-05-06T15:28:10.649Z,15.21
2023-05-06T15:33:12.418Z,15.31
2023-05-06T15:38:14.074Z,15.36
2023-05-06T15:43:22.905Z,15.38
2023-05-06T15:48:25.742Z,15.31
2023-05-06T15:53:28.922Z,15.26
2023-05-06T15:58:30.614Z,15.21
2023-05-06T16:03:32.827Z,15.12
2023-05-06T16:08:34.693Z,15.12
2023-05-06T16:13:36.346Z,15.26
2023-05-06T16:18:37.987Z,15.35
2023-05-06T16:23:39.662Z,15.42
2023-05-06T16:28:41.274Z,15.42
2023-05-06T16:33:43.048Z,15.25
2023-05-06T16:38:44.772Z,15.08
2023-05-06T16:43:46.545Z,14.91
2023-05-06T16:48:48.487Z,14.73
2023-05-06T16:53:50.313Z,14.63
2023-05-06T16:58:52.029Z,14.57
2023-05-06T17:03:53.905Z,14.48
2023-05-06T17:08:55.679Z,14.39
2023-05-06T17:13:57.326Z,14.36
2023-05-06T17:18:59.104Z,14.37
2023-05-06T17:24:00.966Z,14.40
2023-05-06T17:29:02.718Z,14.37
2023-05-06T17:34:04.637Z,14.32
2023-05-06T17:39:07.342Z,14.24
2023-05-06T17:44:09.013Z,14.09
2023-05-06T17:49:11.189Z,13.94
2023-05-06T17:54:13.355Z,13.72
2023-05-06T17:59:14.957Z,13.47
2023-05-06T18:04:16.987Z,13.27
2023-05-06T18:09:19.176Z,13.03
2023-05-06T18:14:20.890Z,12.82
2023-05-06T18:19:22.824Z,12.69
2023-05-06T18:24:24.527Z,12.65
2023-05-06T18:29:27.650Z,12.56
2023-05-06T18:34:29.382Z,12.47
2023-05-06T18:39:31.130Z,12.40
2023-05-06T18:44:32.979Z,12.27
2023-05-06T18:49:35.472Z,12.14
2023-05-06T18:54:37.144Z,12.01
2023-05-06T18:59:38.803Z,11.95
2023-05-06T19:04:40.632Z,11.96
2023-05-06T19:09:43.185Z,11.98
2023-05-06T19:14:45.082Z,11.98
2023-05-06T19:19:48.686Z,12.00
2023-05-06T19:24:51.838Z,12.03
2023-05-06T19:29:53.475Z,12.06
2023-05-06T19:34:55.463Z,12.05
2023-05-06T19:39:57.196Z,12.06
2023-05-06T19:44:58.919Z,12.11
2023-05-06T19:50:01.198Z,12.09
2023-05-06T19:55:03.415Z,12.05
2023-05-06T20:00:09.987Z,12.05
2023-05-06T20:05:12.552Z,12.10
2023-05-06T20:10:14.530Z,12.14
2023-05-06T20:15:16.380Z,12.11
2023-05-06T20:20:19.140Z,12.07
2023-05-06T20:25:21.369Z,12.07
2023-05-06T20:30:23.201Z,12.06
2023-05-06T20:35:25.692Z,12.06
2023-05-06T20:40:28.458Z,12.02
2023-05-06T20:45:31.226Z,11.98
2023-05-06T20:50:33.317Z,11.89
2023-05-06T20:55:35.047Z,11.82
2023-05-06T21:00:36.790Z,11.82
2023-05-06T21:05:38.558Z,11.79
2023-05-06T21:10:43.992Z,11.74
2023-05-06T21:15:46.547Z,11.68
2023-05-06T21:20:48.966Z,11.62
2023-05-06T21:25:50.635Z,11.59
2023-05-06T21:30:52.617Z,11.54
2023-05-06T21:35:54.499Z,11.51
2023-05-06T21:40:56.394Z,11.52
2023-05-06T21:45:58.407Z,11.56
2023-05-06T21:51:04.600Z,11.58
2023-05-06T21:56:06.405Z,11.54
2023-05-06T22:01:08.081Z,11.54
2023-05-06T22:06:09.870Z,11.58
2023-05-06T22:11:11.894Z,11.60
2023-05-06T22:16:13.700Z,11.57
2023-05-06T22:21:15.570Z,11.54
2023-05-06T22:26:17.286Z,11.51
2023-05-06T22:31:20.733Z,11.54
2023-05-06T22:36:23.631Z,11.58
2023-05-06T22:41:25.958Z,11.57
2023-05-06T22:46:29.149Z,11.55
2023-05-06T22:51:33.256Z,11.51
2023-05-06T22:56:35.018Z,11.44
2023-05-06T23:01:36.800Z,11.39
2023-05-06T23:06:40.050Z,11.40
2023-05-06T23:11:42.296Z,11.39
2023-05-06T23:16:46.440Z,11.35
2023-05-06T23:21:48.338Z,11.30
2023-05-06T23:26:50.213Z,11.24
2023-05-06T23:31:51.893Z,11.20
2023-05-06T23:36:53.748Z,11.18
2023-05-06T23:42:00.889Z,11.17
2023-05-06T23:47:04.824Z,11.15
2023-05-06T23:52:08.161Z,11.15
2023-05-06T23:57:09.836Z,11.13
